Time;durP1;ratioP1;P1;durP2;ratioP2;P2;SDS_P1;SDS_P2;PMS_P1;PMS_P2;Temp;Humidity;BMP_temperature;BMP_pressure;BME280_temperature;BME280_humidity;BME280_pressure;Samples;Min_cycle;Max_cycle;Signal;HPM_P1;HPM_P2
2022/08/29 00:02:24;;;;;;;0.00;0.00;;;24.00;92.00;;;;;;5073259;28;20036;-78
2022/08/29 00:04:51;;;;;;;0.00;0.00;;;24.10;92.00;;;;;;5071361;28;20020;-78
2022/08/29 00:07:17;;;;;;;0.00;0.00;;;24.00;91.90;;;;;;5073547;28;20451;-78
2022/08/29 00:09:43;;;;;;;0.00;0.00;;;24.00;91.90;;;;;;5072776;28;20032;-78
2022/08/29 00:12:09;;;;;;;0.00;0.00;;;24.00;92.00;;;;;;5055926;28;20502;-78
2022/08/29 00:14:36;;;;;;;0.10;0.10;;;24.00;92.00;;;;;;5073255;28;20039;-78
2022/08/29 00:17:03;;;;;;;0.10;0.10;;;24.00;92.20;;;;;;5073901;28;20070;-78
2022/08/29 00:19:30;;;;;;;0.55;0.52;;;24.00;92.20;;;;;;5048140;28;20030;-78
2022/08/29 00:21:55;;;;;;;0.00;0.00;;;24.00;92.30;;;;;;5071252;28;20037;-78
2022/08/29 00:24:21;;;;;;;0.00;0.00;;;24.00;92.20;;;;;;5071619;28;20044;-78
2022/08/29 00:26:47;;;;;;;0.05;0.05;;;24.00;92.20;;;;;;5074080;28;20028;-77
2022/08/29 00:29:14;;;;;;;0.10;0.10;;;24.00;92.20;;;;;;5073044;28;20104;-77
2022/08/29 00:31:39;;;;;;;0.20;0.20;;;24.00;92.20;;;;;;5074059;28;20020;-78
2022/08/29 00:34:05;;;;;;;0.45;0.45;;;24.00;92.30;;;;;;5072371;28;20070;-78
2022/08/29 00:36:32;;;;;;;0.05;0.05;;;24.00;92.20;;;;;;5074224;28;20042;-78
2022/08/29 00:38:58;;;;;;;0.00;0.00;;;24.00;92.20;;;;;;5068260;28;20507;-78
2022/08/29 00:41:24;;;;;;;0.40;0.40;;;23.90;92.20;;;;;;5073608;28;20111;-78
2022/08/29 00:43:50;;;;;;;0.10;0.10;;;23.90;92.20;;;;;;5073756;28;20044;-78
2022/08/29 00:46:34;;;;;;;0.68;0.28;;;24.00;92.20;;;;;;5068291;28;20063;-78
2022/08/29 00:49:08;;;;;;;0.50;0.10;;;23.90;92.00;;;;;;5073732;28;20028;-78
2022/08/29 00:51:35;;;;;;;0.45;0.20;;;23.90;92.00;;;;;;5071381;28;20090;-78
2022/08/29 00:54:06;;;;;;;0.10;0.10;;;23.90;91.80;;;;;;5071622;28;20032;-78
2022/08/29 00:56:35;;;;;;;0.43;0.43;;;23.90;91.40;;;;;;5039758;28;20078;-78
2022/08/29 00:59:13;;;;;;;0.00;0.00;;;23.80;91.60;;;;;;5056548;28;20032;-78
2022/08/29 01:01:40;;;;;;;0.05;0.05;;;23.80;91.80;;;;;;5073856;28;20024;-78
2022/08/29 01:04:06;;;;;;;0.17;0.17;;;23.80;91.90;;;;;;5072140;28;20035;-77
2022/08/29 01:06:34;;;;;;;0.00;0.00;;;23.80;92.00;;;;;;5070432;28;20119;-78
2022/08/29 01:09:03;;;;;;;0.00;0.00;;;23.80;91.90;;;;;;5072594;28;20025;-78
2022/08/29 01:14:19;;;;;;;1.27;0.32;;;23.80;92.20;;;;;;5073179;28;20049;-78
2022/08/29 01:16:47;;;;;;;0.00;0.00;;;23.80;92.20;;;;;;5073361;28;20048;-77
2022/08/29 01:19:43;;;;;;;0.08;0.08;;;23.90;92.20;;;;;;5072359;28;20028;-77
2022/08/29 01:22:28;;;;;;;0.00;0.00;;;23.80;92.30;;;;;;5068270;28;20025;-77
2022/08/29 01:24:55;;;;;;;0.00;0.00;;;23.80;92.20;;;;;;5071786;28;20025;-77
2022/08/29 01:27:25;;;;;;;0.10;0.10;;;23.80;92.30;;;;;;5072139;28;20055;-78
2022/08/29 01:29:51;;;;;;;0.30;0.30;;;23.80;92.40;;;;;;5072397;28;20028;-78
2022/08/29 01:32:18;;;;;;;0.17;0.17;;;23.80;92.20;;;;;;5055514;28;20044;-78
2022/08/29 01:34:44;;;;;;;0.00;0.00;;;23.80;92.40;;;;;;5071815;28;20117;-78
2022/08/29 01:37:13;;;;;;;0.05;0.05;;;23.80;92.40;;;;;;5073320;28;20024;-78
2022/08/29 01:39:41;;;;;;;0.10;0.10;;;23.80;92.40;;;;;;5073133;28;20037;-77
2022/08/29 01:42:10;;;;;;;0.10;0.10;;;23.80;92.30;;;;;;5071340;28;20489;-78
2022/08/29 01:44:37;;;;;;;0.10;0.10;;;23.80;92.40;;;;;;5073278;28;20029;-78
2022/08/29 01:47:03;;;;;;;0.15;0.15;;;23.80;92.00;;;;;;5071914;28;20095;-78
2022/08/29 01:49:32;;;;;;;0.03;0.03;;;23.80;92.00;;;;;;5071710;28;20025;-78
2022/08/29 01:51:58;;;;;;;0.65;0.65;;;23.70;91.90;;;;;;5072066;28;20020;-78
2022/08/29 01:54:24;;;;;;;0.20;0.20;;;23.80;91.80;;;;;;5071834;28;20025;-78
2022/08/29 01:56:51;;;;;;;0.00;0.00;;;23.80;92.00;;;;;;5071707;28;20081;-78
2022/08/29 01:59:20;;;;;;;0.20;0.20;;;23.80;92.30;;;;;;5073322;28;20025;-78
2022/08/29 02:01:55;;;;;;;0.20;0.20;;;23.70;92.40;;;;;;5073421;28;20473;-78
2022/08/29 02:04:21;;;;;;;0.10;0.10;;;23.80;92.60;;;;;;5071160;28;20040;-78
2022/08/29 02:06:48;;;;;;;0.25;0.25;;;23.80;92.50;;;;;;5075171;28;20051;-78
2022/08/29 02:09:13;;;;;;;0.00;0.00;;;23.80;92.50;;;;;;5075392;28;20021;-78
2022/08/29 02:11:43;;;;;;;0.28;0.28;;;23.80;92.30;;;;;;5076283;28;20549;-78
2022/08/29 02:14:10;;;;;;;0.25;0.22;;;23.80;92.50;;;;;;5074220;28;20116;-78
2022/08/29 02:16:35;;;;;;;0.00;0.00;;;23.80;92.70;;;;;;5076562;28;20056;-78
2022/08/29 02:19:01;;;;;;;0.00;0.00;;;23.80;92.60;;;;;;5075402;28;20052;-78
2022/08/29 02:21:28;;;;;;;0.10;0.10;;;23.80;92.60;;;;;;5076368;28;20044;-78
2022/08/29 02:23:57;;;;;;;0.00;0.00;;;23.80;92.60;;;;;;5071155;28;20024;-78
2022/08/29 02:26:23;;;;;;;0.00;0.00;;;23.80;92.70;;;;;;5073963;28;20086;-78
2022/08/29 02:28:50;;;;;;;0.00;0.00;;;23.80;92.70;;;;;;5075449;28;20455;-78
2022/08/29 02:31:18;;;;;;;0.00;0.00;;;23.80;92.70;;;;;;5075087;28;20024;-78
2022/08/29 02:33:44;;;;;;;0.00;0.00;;;23.80;92.70;;;;;;5076504;28;20474;-78
2022/08/29 02:36:12;;;;;;;0.08;0.08;;;23.80;92.80;;;;;;5076195;28;20033;-78
2022/08/29 02:38:38;;;;;;;0.17;0.17;;;23.80;92.80;;;;;;5076175;28;20021;-78
2022/08/29 02:41:05;;;;;;;0.00;0.00;;;23.80;92.80;;;;;;5074113;28;20112;-78
2022/08/29 02:43:31;;;;;;;0.63;0.40;;;23.80;92.90;;;;;;5074843;28;20028;-77
2022/08/29 02:45:57;;;;;;;0.00;0.00;;;23.80;92.80;;;;;;5074742;28;20050;-77
2022/08/29 02:48:24;;;;;;;0.00;0.00;;;23.80;92.80;;;;;;5076516;28;20095;-77
2022/08/29 02:50:52;;;;;;;0.22;0.22;;;23.80;93.00;;;;;;5066690;28;20560;-77
2022/08/29 02:53:24;;;;;;;0.00;0.00;;;23.80;92.80;;;;;;5074653;28;20486;-77
2022/08/29 02:55:53;;;;;;;0.10;0.10;;;23.80;92.80;;;;;;5074537;28;20043;-77
2022/08/29 02:58:20;;;;;;;0.28;0.28;;;23.80;92.80;;;;;;5056462;28;20437;-77
2022/08/29 03:00:46;;;;;;;0.00;0.00;;;23.80;92.80;;;;;;5068139;28;20525;-77
2022/08/29 03:03:12;;;;;;;0.40;0.28;;;23.80;92.90;;;;;;5074178;28;20063;-77
2022/08/29 03:05:38;;;;;;;0.15;0.15;;;23.70;92.70;;;;;;5074714;28;20032;-77
2022/08/29 03:08:09;;;;;;;19.70;0.65;;;23.70;92.70;;;;;;5075555;28;20070;-77
2022/08/29 03:10:35;;;;;;;7.65;0.15;;;23.70;92.70;;;;;;5075606;28;20031;-77
2022/08/29 03:13:03;;;;;;;0.00;0.00;;;23.70;92.70;;;;;;5074142;28;20057;-77
2022/08/29 03:15:29;;;;;;;0.32;0.32;;;23.70;92.70;;;;;;5065724;28;20028;-77
2022/08/29 03:17:55;;;;;;;0.17;0.17;;;23.70;92.70;;;;;;5058291;28;21182;-77
2022/08/29 03:20:23;;;;;;;0.00;0.00;;;23.70;92.70;;;;;;5055071;28;20107;-77
2022/08/29 03:22:51;;;;;;;0.00;0.00;;;23.70;92.80;;;;;;5067608;28;20025;-77
2022/08/29 03:25:17;;;;;;;0.40;0.20;;;23.60;92.80;;;;;;5073963;28;20379;-77
2022/08/29 03:27:43;;;;;;;0.57;0.57;;;23.70;92.80;;;;;;5069953;28;20020;-77
2022/08/29 03:30:18;;;;;;;0.00;0.00;;;23.60;92.80;;;;;;5071502;28;20356;-77
2022/08/29 03:32:45;;;;;;;0.00;0.00;;;23.70;92.80;;;;;;5075939;28;20052;-77
2022/08/29 03:35:12;;;;;;;0.08;0.08;;;23.60;92.90;;;;;;5075111;28;20025;-77
2022/08/29 03:37:38;;;;;;;0.10;0.10;;;23.60;93.00;;;;;;5075286;28;20024;-77
2022/08/29 03:40:06;;;;;;;0.00;0.00;;;23.70;93.00;;;;;;5073768;28;20107;-77
2022/08/29 03:42:34;;;;;;;0.10;0.10;;;23.60;93.10;;;;;;5072521;28;20478;-77
2022/08/29 03:45:05;;;;;;;0.32;0.32;;;23.60;93.10;;;;;;5048542;28;20044;-77
2022/08/29 03:47:31;;;;;;;0.08;0.08;;;23.60;93.10;;;;;;5065634;28;20112;-77
2022/08/29 03:49:56;;;;;;;0.00;0.00;;;23.60;93.20;;;;;;5073851;28;20040;-77
2022/08/29 03:52:22;;;;;;;0.15;0.15;;;23.60;93.30;;;;;;5070896;28;20037;-77
2022/08/29 03:54:51;;;;;;;0.38;0.38;;;23.60;93.20;;;;;;5075032;28;20470;-77
2022/08/29 03:57:18;;;;;;;0.38;0.28;;;23.60;93.30;;;;;;5073320;28;20071;-77
2022/08/29 03:59:47;;;;;;;0.22;0.20;;;23.60;93.40;;;;;;5056517;28;20051;-77
2022/08/29 04:02:12;;;;;;;0.22;0.22;;;23.60;93.40;;;;;;5068775;28;20028;-77
2022/08/29 04:07:24;;;;;;;0.38;0.38;;;23.60;93.50;;;;;;5074045;28;20112;-77
2022/08/29 04:09:50;;;;;;;0.25;0.20;;;23.60;93.30;;;;;;5074366;28;20020;-81
2022/08/29 04:12:16;;;;;;;0.75;0.60;;;23.60;92.60;;;;;;5074210;28;20057;-83
2022/08/29 04:14:42;;;;;;;0.00;0.00;;;23.50;92.10;;;;;;5074786;28;20494;-89
2022/08/29 04:17:11;;;;;;;0.30;0.30;;;23.40;92.00;;;;;;5069896;28;20032;-89
2022/08/29 04:19:38;;;;;;;3.13;0.93;;;23.30;92.00;;;;;;5069749;28;20040;-89
2022/08/29 04:22:04;;;;;;;1.02;0.80;;;23.10;92.20;;;;;;5060949;28;20781;-88
2022/08/29 04:24:34;;;;;;;0.52;0.52;;;22.90;92.10;;;;;;5035203;28;20028;-89
2022/08/29 04:27:00;;;;;;;0.38;0.38;;;22.80;92.50;;;;;;5036537;28;20021;-89
2022/08/29 04:29:26;;;;;;;0.35;0.32;;;22.70;92.90;;;;;;5034443;28;20033;-89
2022/08/29 04:31:54;;;;;;;0.70;0.70;;;22.60;92.90;;;;;;5072880;28;20032;-89
2022/08/29 04:34:20;;;;;;;0.65;0.65;;;22.50;93.20;;;;;;5074722;28;20084;-89
2022/08/29 04:36:47;;;;;;;0.22;0.22;;;22.40;93.30;;;;;;5073934;28;20032;-83
2022/08/29 04:39:15;;;;;;;0.22;0.22;;;22.30;93.70;;;;;;5068428;28;20036;-79
2022/08/29 04:41:41;;;;;;;4.00;2.95;;;22.30;93.50;;;;;;5068353;28;20498;-79
2022/08/29 04:44:08;;;;;;;2.08;1.83;;;22.30;93.40;;;;;;5072599;28;20081;-79
2022/08/29 04:46:36;;;;;;;8.75;3.58;;;22.30;93.50;;;;;;5074308;28;20090;-79
2022/08/29 04:49:02;;;;;;;5.53;5.00;;;22.30;93.50;;;;;;5053724;28;20032;-78
2022/08/29 04:51:28;;;;;;;3.85;3.53;;;22.30;93.50;;;;;;5072716;28;20031;-77
2022/08/29 04:53:54;;;;;;;5.47;4.88;;;22.30;93.40;;;;;;5072377;28;20111;-77
2022/08/29 04:56:20;;;;;;;5.72;2.88;;;22.40;93.40;;;;;;5072745;28;20446;-77
2022/08/29 04:58:49;;;;;;;4.35;3.00;;;22.40;93.40;;;;;;5073046;28;20025;-77
2022/08/29 05:01:17;;;;;;;3.20;2.58;;;22.50;93.40;;;;;;5067175;28;20066;-77
2022/08/29 05:03:43;;;;;;;5.82;1.98;;;22.60;93.40;;;;;;5072591;28;20021;-85
2022/08/29 05:06:11;;;;;;;5.50;2.60;;;22.60;93.40;;;;;;5072830;28;20382;-85
2022/08/29 05:08:38;;;;;;;2.85;1.85;;;22.60;94.00;;;;;;5072295;28;20025;-76
2022/08/29 05:11:08;;;;;;;1.00;1.00;;;22.60;93.90;;;;;;5073359;28;20028;-76
2022/08/29 05:13:36;;;;;;;1.83;1.50;;;22.70;93.70;;;;;;5072319;28;20033;-76
2022/08/29 05:16:06;;;;;;;0.38;0.38;;;22.70;93.60;;;;;;5072567;28;20041;-76
2022/08/29 05:18:33;;;;;;;0.20;0.20;;;22.70;93.50;;;;;;5073104;28;20032;-76
2022/08/29 05:21:00;;;;;;;0.55;0.55;;;22.80;93.40;;;;;;5071917;28;20024;-76
2022/08/29 05:23:26;;;;;;;0.90;0.90;;;22.80;93.30;;;;;;5072027;28;20021;-76
2022/08/29 05:25:58;;;;;;;0.20;0.20;;;22.80;93.20;;;;;;5073257;28;20039;-76
2022/08/29 05:28:24;;;;;;;0.38;0.17;;;22.90;93.20;;;;;;5073433;28;20013;-76
2022/08/29 05:30:50;;;;;;;0.90;0.20;;;22.90;93.10;;;;;;5071804;28;20025;-76
2022/08/29 05:33:16;;;;;;;0.30;0.30;;;22.90;93.00;;;;;;5071696;28;20387;-76
2022/08/29 05:35:42;;;;;;;0.45;0.40;;;23.00;93.00;;;;;;5073273;28;20036;-76
2022/08/29 05:38:08;;;;;;;0.15;0.15;;;23.00;92.90;;;;;;5072199;28;20028;-76
2022/08/29 05:40:35;;;;;;;0.38;0.38;;;23.10;92.80;;;;;;5077093;28;20058;-76
2022/08/29 05:43:01;;;;;;;0.32;0.32;;;23.10;92.80;;;;;;5075954;28;20467;-76
2022/08/29 05:45:26;;;;;;;0.38;0.30;;;23.10;92.70;;;;;;5075748;28;20047;-76
2022/08/29 05:47:54;;;;;;;0.40;0.40;;;23.10;92.60;;;;;;5076983;28;20021;-76
2022/08/29 05:50:20;;;;;;;0.08;0.08;;;23.20;92.60;;;;;;5077102;28;20027;-76
2022/08/29 05:52:46;;;;;;;0.60;0.60;;;23.10;92.50;;;;;;5076757;28;20028;-76
2022/08/29 05:55:11;;;;;;;0.10;0.10;;;23.20;92.50;;;;;;5076814;28;20390;-76
2022/08/29 05:57:38;;;;;;;0.28;0.28;;;23.20;92.40;;;;;;5075349;28;20356;-76
2022/08/29 06:00:07;;;;;;;0.40;0.40;;;23.20;92.30;;;;;;5075798;28;20032;-76
2022/08/29 06:02:34;;;;;;;1.02;0.30;;;23.20;92.20;;;;;;5075367;28;20032;-76
2022/08/29 06:04:59;;;;;;;3.60;0.28;;;23.30;92.20;;;;;;5076676;28;20020;-76
2022/08/29 06:07:25;;;;;;;0.40;0.38;;;23.30;92.20;;;;;;5075713;28;20116;-76
2022/08/29 06:09:51;;;;;;;0.13;0.13;;;23.30;92.10;;;;;;5076723;28;20123;-76
2022/08/29 06:12:20;;;;;;;0.00;0.00;;;23.30;92.00;;;;;;5076610;28;20542;-76
2022/08/29 06:14:46;;;;;;;0.23;0.23;;;23.30;92.00;;;;;;5075370;28;20028;-76
2022/08/29 06:17:12;;;;;;;0.20;0.20;;;23.40;92.00;;;;;;5076360;28;20429;-76
2022/08/29 06:19:38;;;;;;;2.47;0.90;;;23.40;91.90;;;;;;5075066;28;20030;-76
2022/08/29 06:22:07;;;;;;;0.20;0.20;;;23.40;91.90;;;;;;5075255;28;20111;-76
2022/08/29 06:24:35;;;;;;;0.30;0.13;;;23.40;91.80;;;;;;5075324;28;20359;-76
2022/08/29 06:27:01;;;;;;;0.35;0.28;;;23.40;91.70;;;;;;5076470;28;20023;-76
2022/08/29 06:29:27;;;;;;;0.60;0.22;;;23.40;91.70;;;;;;5076187;28;20070;-76
2022/08/29 06:31:57;;;;;;;0.13;0.13;;;23.40;91.60;;;;;;5057989;28;20033;-76
2022/08/29 06:34:23;;;;;;;0.30;0.30;;;23.50;91.60;;;;;;5075027;28;20025;-76
2022/08/29 06:36:51;;;;;;;0.00;0.00;;;23.50;91.60;;;;;;5076314;28;20158;-76
2022/08/29 06:39:18;;;;;;;0.10;0.10;;;23.50;91.50;;;;;;5074941;28;20359;-84
2022/08/29 06:41:43;;;;;;;0.60;0.60;;;23.50;91.60;;;;;;5058353;28;20032;-85
2022/08/29 06:44:09;;;;;;;3.47;2.20;;;23.50;91.40;;;;;;5058294;28;20028;-84
2022/08/29 06:46:46;;;;;;;1.40;1.13;;;23.50;91.60;;;;;;5076105;28;20378;-86
2022/08/29 06:49:14;;;;;;;0.57;0.57;;;23.50;91.80;;;;;;5076034;28;20581;-80
2022/08/29 06:51:43;;;;;;;0.82;0.70;;;23.60;91.60;;;;;;5074172;28;20024;-83
2022/08/29 06:54:11;;;;;;;0.20;0.20;;;23.60;91.40;;;;;;5076352;28;20082;-83
2022/08/29 06:56:37;;;;;;;0.52;0.52;;;23.60;91.40;;;;;;5064951;28;20544;-83
2022/08/29 06:59:06;;;;;;;0.38;0.20;;;23.60;91.40;;;;;;5055427;28;20460;-84
2022/08/29 07:01:33;;;;;;;1.60;1.35;;;23.60;91.50;;;;;;5054450;28;20497;-83
2022/08/29 07:04:02;;;;;;;8.40;1.25;;;23.60;91.40;;;;;;5054217;28;20435;-83
2022/08/29 07:06:29;;;;;;;0.50;0.50;;;23.60;91.30;;;;;;5055619;28;20023;-83
2022/08/29 07:08:57;;;;;;;0.70;0.70;;;23.60;91.20;;;;;;5054370;28;20261;-83
2022/08/29 07:11:28;;;;;;;1.10;0.22;;;23.60;91.20;;;;;;5055338;28;20067;-83
2022/08/29 07:14:00;;;;;;;0.20;0.20;;;23.60;91.10;;;;;;5054431;28;20040;-83
2022/08/29 07:16:27;;;;;;;0.20;0.20;;;23.60;91.10;;;;;;5055315;28;20029;-77
2022/08/29 07:18:53;;;;;;;0.80;0.80;;;23.60;91.10;;;;;;5052784;28;20025;-77
2022/08/29 07:21:24;;;;;;;0.75;0.50;;;23.60;91.00;;;;;;5053018;28;20017;-76
2022/08/29 07:23:52;;;;;;;0.32;0.32;;;23.70;90.90;;;;;;5053507;28;20108;-77
2022/08/29 07:26:22;;;;;;;0.60;0.60;;;23.70;90.90;;;;;;5053635;28;20501;-77
2022/08/29 07:28:49;;;;;;;0.15;0.15;;;23.70;90.90;;;;;;5053951;28;20023;-77
2022/08/29 07:31:16;;;;;;;0.28;0.17;;;23.70;90.80;;;;;;5052796;28;20029;-77
2022/08/29 07:33:41;;;;;;;0.90;0.80;;;23.70;90.70;;;;;;5036291;28;20041;-77
2022/08/29 07:36:07;;;;;;;2.17;1.40;;;23.70;90.70;;;;;;5054176;28;20033;-77
2022/08/29 07:38:33;;;;;;;0.43;0.43;;;23.70;90.70;;;;;;5054214;28;20025;-77
2022/08/29 07:41:02;;;;;;;0.00;0.00;;;23.70;90.60;;;;;;5053561;28;20395;-77
2022/08/29 07:43:28;;;;;;;0.30;0.30;;;23.70;90.50;;;;;;5037083;28;20033;-77
2022/08/29 07:45:54;;;;;;;0.15;0.15;;;23.70;90.60;;;;;;5053548;28;20032;-77
2022/08/29 07:48:21;;;;;;;0.13;0.13;;;23.80;90.60;;;;;;5053552;28;20033;-77
2022/08/29 07:50:50;;;;;;;0.10;0.10;;;23.80;90.60;;;;;;5053731;28;20018;-77
2022/08/29 07:53:16;;;;;;;0.22;0.22;;;23.80;90.50;;;;;;5053207;28;20033;-77
2022/08/29 07:55:42;;;;;;;0.17;0.17;;;23.80;90.50;;;;;;5053063;28;20063;-77
2022/08/29 07:58:08;;;;;;;0.35;0.35;;;23.80;90.50;;;;;;5054632;28;20357;-77
2022/08/29 08:00:35;;;;;;;0.13;0.10;;;23.80;90.50;;;;;;5054364;28;20065;-77
2022/08/29 08:03:01;;;;;;;0.05;0.05;;;23.80;90.90;;;;;;5052379;28;20493;-77
2022/08/29 08:05:29;;;;;;;0.30;0.30;;;23.80;90.50;;;;;;5053144;28;20056;-77
2022/08/29 08:07:54;;;;;;;0.05;0.05;;;23.80;90.60;;;;;;5036574;28;20029;-77
2022/08/29 08:10:20;;;;;;;0.63;0.28;;;23.80;90.90;;;;;;5053123;28;20021;-77
2022/08/29 08:12:47;;;;;;;0.20;0.20;;;23.80;90.50;;;;;;5054085;28;20407;-77
2022/08/29 08:15:14;;;;;;;0.05;0.05;;;23.80;90.70;;;;;;5053108;28;20032;-77
2022/08/29 08:17:41;;;;;;;0.38;0.38;;;23.80;90.50;;;;;;5053231;28;20025;-77
2022/08/29 08:20:07;;;;;;;0.08;0.08;;;23.90;90.60;;;;;;5052521;28;20024;-77
2022/08/29 08:22:34;;;;;;;0.03;0.03;;;23.80;90.50;;;;;;5054197;28;20029;-77
2022/08/29 08:25:02;;;;;;;1.23;0.73;;;23.90;90.50;;;;;;5053080;28;20460;-76
2022/08/29 08:27:27;;;;;;;0.65;0.45;;;23.90;90.40;;;;;;5052526;28;20057;-76
2022/08/29 08:29:53;;;;;;;2.17;1.33;;;23.90;90.40;;;;;;5052571;28;20094;-76
2022/08/29 08:32:19;;;;;;;8.10;4.10;;;23.90;90.40;;;;;;5054589;28;20060;-76
2022/08/29 08:34:44;;;;;;;11.55;6.05;;;23.80;90.50;;;;;;5054474;28;20028;-76
2022/08/29 08:37:11;;;;;;;8.18;7.38;;;23.90;90.40;;;;;;5052977;28;20123;-76
2022/08/29 08:39:38;;;;;;;6.68;5.88;;;23.90;90.60;;;;;;5053754;28;20033;-76
2022/08/29 08:42:41;;;;;;;12.20;8.07;;;23.90;90.50;;;;;;5036512;28;20489;-76
2022/08/29 08:45:11;;;;;;;20.35;8.25;;;23.90;90.60;;;;;;5053035;28;20112;-76
2022/08/29 08:47:57;;;;;;;7.13;6.40;;;24.00;90.90;;;;;;5054140;28;20029;-76
2022/08/29 08:50:28;;;;;;;10.80;5.18;;;24.00;90.70;;;;;;5054034;28;20047;-76
2022/08/29 08:53:11;;;;;;;9.07;5.28;;;24.00;90.70;;;;;;5054180;28;20451;-76
2022/08/29 08:55:43;;;;;;;8.18;4.22;;;24.00;90.70;;;;;;5038317;28;20037;-76
2022/08/29 08:58:30;;;;;;;2.92;2.70;;;24.00;90.90;;;;;;5052498;28;20032;-76
2022/08/29 09:01:09;;;;;;;5.07;2.72;;;24.00;91.00;;;;;;5053546;28;20492;-76
2022/08/29 09:03:50;;;;;;;2.30;2.17;;;24.00;90.90;;;;;;5053434;28;20036;-76
2022/08/29 09:06:44;;;;;;;3.72;2.58;;;24.00;90.90;;;;;;5051105;28;20036;-76
2022/08/29 09:09:18;;;;;;;2.20;2.00;;;24.00;90.70;;;;;;5051246;28;20064;-76
2022/08/29 09:12:05;;;;;;;2.78;2.05;;;24.00;90.80;;;;;;5052430;28;20131;-76
2022/08/29 09:14:54;;;;;;;4.97;1.50;;;24.00;90.90;;;;;;5051284;28;20129;-76
2022/08/29 09:17:35;;;;;;;3.83;1.40;;;24.00;90.70;;;;;;5053273;28;20020;-76
2022/08/29 09:20:07;;;;;;;1.42;1.30;;;24.00;91.10;;;;;;5052182;28;20229;-76
2022/08/29 09:22:33;;;;;;;6.53;2.47;;;24.00;91.20;;;;;;5051992;28;20025;-76
2022/08/29 09:25:05;;;;;;;0.65;0.65;;;24.00;91.10;;;;;;5051916;28;20465;-76
2022/08/29 09:27:33;;;;;;;3.20;1.88;;;24.00;91.30;;;;;;5035903;28;20025;-76
2022/08/29 09:30:10;;;;;;;1.23;1.10;;;24.00;91.30;;;;;;5051628;28;20025;-76
2022/08/29 09:33:07;;;;;;;0.10;0.10;;;24.00;91.00;;;;;;5052545;28;20395;-76
2022/08/29 09:35:51;;;;;;;0.40;0.40;;;24.10;90.90;;;;;;5049102;28;20035;-78
2022/08/29 09:38:16;;;;;;;0.90;0.73;;;24.10;91.00;;;;;;5051924;28;20067;-78
2022/08/29 09:41:02;;;;;;;4.90;0.90;;;24.00;90.90;;;;;;5052057;28;20025;-79
2022/08/29 09:43:51;;;;;;;0.52;0.52;;;24.10;90.80;;;;;;5051777;28;20475;-78
2022/08/29 09:46:23;;;;;;;0.75;0.75;;;24.10;91.30;;;;;;5052169;28;20029;-78
2022/08/29 09:48:58;;;;;;;0.05;0.05;;;24.10;90.90;;;;;;5053309;28;20078;-78
2022/08/29 09:51:36;;;;;;;0.65;0.65;;;24.10;91.10;;;;;;5053535;28;20522;-85
2022/08/29 09:54:25;;;;;;;7.75;4.30;;;24.10;90.40;;;;;;5051901;28;20438;-85
2022/08/29 09:57:18;;;;;;;12.00;7.63;;;24.00;89.60;;;;;;5052022;28;20375;-84
2022/08/29 09:59:46;;;;;;;23.88;6.90;;;24.10;89.70;;;;;;5038069;28;20541;-84
2022/08/29 10:02:18;;;;;;;7.95;5.80;;;24.00;90.00;;;;;;5051393;28;20029;-84
2022/08/29 10:04:59;;;;;;;9.40;4.43;;;24.10;89.60;;;;;;5053160;28;20420;-83
2022/08/29 10:07:32;;;;;;;3.67;3.33;;;24.10;89.70;;;;;;5051735;28;20026;-83
2022/08/29 10:10:22;;;;;;;5.88;4.25;;;24.10;89.40;;;;;;5053043;28;20472;-84
2022/08/29 10:13:07;;;;;;;;;;;24.10;89.00;;;;;;5052787;28;20059;-76
2022/08/29 10:15:56;;;;;;;1.48;1.38;;;24.10;89.30;;;;;;5052863;28;19909;-76
2022/08/29 10:18:34;;;;;;;;;;;24.20;89.30;;;;;;5052245;28;20436;-76
2022/08/29 10:21:11;;;;;;;0.85;0.85;;;24.20;89.20;;;;;;5052952;28;19908;-76
2022/08/29 10:24:11;;;;;;;1.15;1.15;;;24.20;89.20;;;;;;5052718;28;20099;-74
2022/08/29 10:27:01;;;;;;;2.20;1.13;;;24.30;89.40;;;;;;5053591;28;20021;-74
2022/08/29 10:30:00;;;;;;;0.50;0.50;;;24.30;89.30;;;;;;5056199;28;20373;-74
2022/08/29 10:32:38;;;;;;;0.28;0.28;;;24.30;89.20;;;;;;5054236;28;20032;-75
2022/08/29 10:35:20;;;;;;;1.10;1.00;;;24.30;89.10;;;;;;5055174;28;20025;-74
2022/08/29 10:38:11;;;;;;;0.30;0.30;;;24.30;89.50;;;;;;5054024;28;20029;-75
2022/08/29 10:40:58;;;;;;;0.40;0.40;;;24.40;89.40;;;;;;5056254;28;20021;-74
2022/08/29 10:43:38;;;;;;;1.08;1.08;;;24.40;89.10;;;;;;5055782;28;20048;-75
2022/08/29 10:46:31;;;;;;;3.03;0.70;;;24.50;89.20;;;;;;5054871;28;20506;-75
2022/08/29 10:49:28;;;;;;;0.47;0.47;;;24.40;89.10;;;;;;5054882;28;20021;-74
2022/08/29 10:52:05;;;;;;;0.28;0.15;;;24.50;88.60;;;;;;5034095;28;20036;-75
2022/08/29 10:55:11;;;;;;;0.10;0.10;;;24.50;88.80;;;;;;5055984;28;20039;-75
2022/08/29 10:57:42;;;;;;;0.60;0.45;;;24.50;88.90;;;;;;5038012;28;20025;-74
2022/08/29 11:00:15;;;;;;;1.00;0.63;;;24.50;88.80;;;;;;5053464;28;20112;-75
2022/08/29 11:02:51;;;;;;;1.02;0.88;;;24.50;88.80;;;;;;5054177;28;20033;-74
2022/08/29 11:05:32;;;;;;;0.35;0.35;;;24.60;88.50;;;;;;5054641;28;20017;-75
2022/08/29 11:08:08;;;;;;;0.40;0.40;;;24.60;88.20;;;;;;5054698;28;20100;-75
2022/08/29 11:10:39;;;;;;;0.10;0.10;;;24.60;88.00;;;;;;5053485;28;20037;-74
2022/08/29 11:13:27;;;;;;;0.75;0.68;;;24.60;87.30;;;;;;5037623;28;20458;-75
2022/08/29 11:16:11;;;;;;;0.15;0.15;;;24.60;87.40;;;;;;5055718;28;20032;-74
2022/08/29 11:19:00;;;;;;;0.10;0.10;;;24.60;87.60;;;;;;5054681;28;20471;-74
2022/08/29 11:21:44;;;;;;;0.10;0.10;;;24.70;88.00;;;;;;5054174;28;20029;-75
2022/08/29 11:24:13;;;;;;;0.20;0.20;;;24.70;88.10;;;;;;5055788;28;20026;-75
2022/08/29 11:26:48;;;;;;;0.17;0.17;;;24.70;87.60;;;;;;5054607;28;20031;-75
2022/08/29 11:29:50;;;;;;;0.95;0.93;;;24.70;87.50;;;;;;5064717;28;20020;-74
2022/08/29 11:32:44;;;;;;;0.70;0.20;;;24.70;86.90;;;;;;5069455;28;20080;-74
2022/08/29 11:35:23;;;;;;;1.95;1.02;;;24.70;86.40;;;;;;5068686;28;20420;-75
2022/08/29 11:38:00;;;;;;;0.25;0.25;;;24.80;86.40;;;;;;5073556;28;20030;-75
2022/08/29 11:40:36;;;;;;;0.60;0.60;;;24.80;86.80;;;;;;5075077;28;20044;-75
2022/08/29 11:43:04;;;;;;;0.52;0.35;;;24.80;86.90;;;;;;5070936;28;20352;-83
2022/08/29 11:45:36;;;;;;;0.40;0.40;;;24.90;86.60;;;;;;5054667;28;20029;-76
2022/08/29 11:48:45;;;;;;;0.03;0.03;;;25.10;86.90;;;;;;5053434;28;20025;-80
2022/08/29 11:51:29;;;;;;;0.25;0.25;;;25.20;86.60;;;;;;4999404;28;20546;-74
2022/08/29 11:54:15;;;;;;;0.47;0.47;;;25.30;86.60;;;;;;5016545;28;20068;-75
